Time;durP1;ratioP1;P1;durP2;ratioP2;P2;SDS_P1;SDS_P2;PMS_P1;PMS_P2;Temp;Humidity;BMP_temperature;BMP_pressure;BME280_temperature;BME280_humidity;BME280_pressure;Samples;Min_cycle;Max_cycle;Signal;HPM_P1;HPM_P2
2022/12/24 00:01:08;;;;;;;99.00;31.98;;;;;;;3.35;100.00;88348.22;4991997;28;20558;-75
2022/12/24 00:03:36;;;;;;;93.05;30.50;;;;;;;3.34;100.00;88678.38;5010072;28;20398;-75
2022/12/24 00:06:15;;;;;;;93.63;30.98;;;;;;;3.34;100.00;88346.78;5009757;28;20041;-74
2022/12/24 00:08:40;;;;;;;91.30;29.67;;;;;;;3.33;100.00;88346.03;5007868;28;20128;-75
2022/12/24 00:11:06;;;;;;;86.78;30.23;;;;;;;3.35;100.00;88679.81;5009053;28;20128;-75
2022/12/24 00:13:32;;;;;;;103.22;31.35;;;;;;;3.31;100.00;89004.84;5003206;28;20037;-75
2022/12/24 00:15:59;;;;;;;85.57;29.48;;;;;;;3.35;100.00;88679.81;5026792;28;20083;-75
2022/12/24 00:18:25;;;;;;;82.57;29.40;;;;;;;3.34;100.00;88346.78;5011727;28;20041;-75
2022/12/24 00:20:50;;;;;;;96.55;30.42;;;;;;;3.31;100.00;88674.72;5036736;28;20028;-75
2022/12/24 00:23:16;;;;;;;87.35;30.35;;;;;;;3.34;100.00;88346.78;5012171;28;20864;-75
2022/12/24 00:25:42;;;;;;;90.13;30.60;;;;;;;3.28;100.00;88670.34;5012912;28;20083;-74
2022/12/24 00:28:08;;;;;;;85.97;28.98;;;;;;;3.31;100.00;88343.88;5023466;28;20154;-75
2022/12/24 00:30:37;;;;;;;85.78;29.70;;;;;;;3.29;100.00;88340.94;5007998;28;20501;-75
2022/12/24 00:33:03;;;;;;;96.72;32.22;;;;;;;3.31;100.00;88013.06;5035289;28;20087;-75
2022/12/24 00:35:28;;;;;;;92.47;30.08;;;;;;;3.29;100.00;88340.94;5010722;28;20040;-75
2022/12/24 00:37:54;;;;;;;85.05;29.85;;;;;;;3.29;100.00;87678.63;5021300;28;20050;-75
2022/12/24 00:40:19;;;;;;;87.35;29.23;;;;;;;3.29;100.00;87678.63;5008638;28;20052;-75
2022/12/24 00:42:45;;;;;;;88.93;29.40;;;;;;;3.29;100.00;87348.56;5020462;28;20377;-75
2022/12/24 00:45:11;;;;;;;95.07;29.63;;;;;;;3.29;100.00;87017.13;5010028;28;20406;-75
2022/12/24 00:47:37;;;;;;;76.43;27.75;;;;;;;3.36;100.00;86696.41;5010907;28;20075;-75
2022/12/24 00:50:04;;;;;;;79.18;28.23;;;;;;;3.31;100.00;87020.00;5012533;28;20068;-75
2022/12/24 00:52:29;;;;;;;78.88;28.85;;;;;;;3.28;100.00;87016.44;5020913;28;20638;-75
2022/12/24 00:54:55;;;;;;;83.40;27.50;;;;;;;3.27;100.00;88007.22;5014174;28;20091;-73
2022/12/24 00:57:21;;;;;;;74.10;27.10;;;;;;;3.29;100.00;87678.63;5012356;28;20036;-75
2022/12/24 00:59:46;;;;;;;79.53;26.45;;;;;;;3.30;100.00;87350.03;5030019;28;20033;-75
2022/12/24 01:02:12;;;;;;;72.70;25.45;;;;;;;3.27;100.00;87014.97;5012426;28;20040;-75
2022/12/24 01:07:22;;;;;;;67.38;24.70;;;;;;;3.26;100.00;87013.56;5031934;28;20047;-75
2022/12/24 01:09:48;;;;;;;72.00;26.33;;;;;;;3.26;100.00;87013.56;5035723;28;20028;-75
2022/12/24 01:12:13;;;;;;;79.68;27.92;;;;;;;3.26;100.00;87012.84;5027118;28;20134;-74
2022/12/24 01:14:39;;;;;;;79.03;26.92;;;;;;;3.28;100.00;86685.72;5002813;28;20418;-74
2022/12/24 01:17:07;;;;;;;65.68;26.25;;;;;;;3.31;100.00;86359.31;5022599;28;20474;-75
2022/12/24 01:19:32;;;;;;;76.35;25.98;;;;;;;3.28;100.00;87016.44;5006169;28;20036;-75
2022/12/24 01:21:58;;;;;;;74.35;27.40;;;;;;;3.28;100.00;87015.72;5014957;28;20162;-73
2022/12/24 01:24:24;;;;;;;80.15;27.58;;;;;;;3.28;100.00;87346.44;5024590;28;20033;-75
2022/12/24 01:26:49;;;;;;;77.63;27.33;;;;;;;3.29;100.00;87678.63;4995221;28;20371;-75
2022/12/24 01:29:16;;;;;;;66.70;25.90;;;;;;;3.28;100.00;87677.91;4992923;28;20443;-75
2022/12/24 01:31:42;;;;;;;78.45;27.52;;;;;;;3.24;100.00;88002.91;5026048;28;20694;-75
2022/12/24 01:34:07;;;;;;;75.72;27.75;;;;;;;3.27;100.00;87675.75;5024442;28;20087;-75
2022/12/24 01:36:33;;;;;;;74.20;27.73;;;;;;;3.25;100.00;87672.84;5009600;28;20084;-74
2022/12/24 01:38:58;;;;;;;81.93;28.33;;;;;;;3.24;100.00;87340.69;5014680;28;20525;-75
2022/12/24 01:44:17;;;;;;;90.30;28.52;;;;;;;3.28;100.00;87346.44;5025044;28;20096;-75
2022/12/24 01:46:43;;;;;;;98.85;29.80;;;;;;;3.23;100.00;87339.25;5004917;28;20032;-76
2022/12/24 01:49:13;;;;;;;90.20;30.15;;;;;;;3.22;100.00;87669.25;5007382;28;20102;-75
2022/12/24 01:51:47;;;;;;;87.82;28.83;;;;;;;3.24;100.00;87341.41;5003989;28;20076;-76
2022/12/24 01:54:12;;;;;;;89.68;28.33;;;;;;;3.24;100.00;87341.41;5010732;28;20087;-75
2022/12/24 01:56:42;;;;;;;84.10;27.17;;;;;;;3.23;100.00;87008.56;5007768;28;20500;-74
2022/12/24 01:59:12;;;;;;;90.95;29.38;;;;;;;3.20;100.00;87335.66;5010090;28;20407;-74
2022/12/24 02:01:38;;;;;;;85.22;28.48;;;;;;;3.21;100.00;87006.41;5023909;28;20040;-74
2022/12/24 02:04:20;;;;;;;92.85;29.05;;;;;;;3.22;100.00;87007.84;5007131;28;20037;-74
2022/12/24 02:06:46;;;;;;;96.60;30.33;;;;;;;3.21;100.00;86675.75;5023175;28;20037;-74
2022/12/24 02:09:12;;;;;;;99.00;30.98;;;;;;;3.20;100.00;86343.69;5028853;28;20066;-74
2022/12/24 02:11:41;;;;;;;97.68;29.13;;;;;;;3.19;100.00;86341.56;4996589;28;20044;-75
2022/12/24 02:14:07;;;;;;;96.97;29.80;;;;;;;3.22;100.00;86015.91;4992531;28;20506;-74
2022/12/24 02:16:53;;;;;;;89.68;28.50;;;;;;;3.25;100.00;85688.84;5012147;28;20025;-75
2022/12/24 02:19:56;;;;;;;88.22;30.38;;;;;;;3.25;100.00;85358.28;5011647;28;20732;-75
2022/12/24 02:22:44;;;;;;;87.30;29.00;;;;;;;3.23;100.00;85686.03;4990361;28;20043;-74
2022/12/24 02:25:09;;;;;;;89.90;28.30;;;;;;;3.23;100.00;85686.03;4997366;28;20042;-75
2022/12/24 02:27:59;;;;;;;93.50;30.75;;;;;;;3.21;100.00;85353.34;5019898;28;20514;-75
2022/12/24 02:30:35;;;;;;;82.10;28.92;;;;;;;3.22;100.00;85354.06;5008421;28;20040;-74
2022/12/24 02:33:15;;;;;;;91.70;30.50;;;;;;;3.24;100.00;85356.84;5021720;28;20091;-73
2022/12/24 02:36:05;;;;;;;92.32;29.90;;;;;;;3.22;100.00;85684.63;4994542;28;20060;-74
2022/12/24 02:38:39;;;;;;;88.85;29.35;;;;;;;3.23;100.00;85686.03;4992484;28;20128;-75
2022/12/24 02:41:20;;;;;;;85.22;28.00;;;;;;;3.29;100.00;85364.56;5023219;28;20041;-75
2022/12/24 02:43:50;;;;;;;81.40;27.88;;;;;;;3.25;100.00;86020.16;4989860;28;20037;-75
2022/12/24 02:46:23;;;;;;;88.95;31.13;;;;;;;3.26;100.00;86351.50;5020246;28;20032;-74
2022/12/24 02:48:49;;;;;;;83.57;27.60;;;;;;;3.27;100.00;86683.56;5020425;28;20033;-75
2022/12/24 02:51:16;;;;;;;92.90;30.25;;;;;;;3.26;100.00;87013.56;5007536;28;20044;-75
2022/12/24 02:53:41;;;;;;;87.70;29.50;;;;;;;3.25;100.00;86681.44;5003276;28;20041;-74
2022/12/24 02:56:40;;;;;;;89.00;29.23;;;;;;;3.26;100.00;87343.56;5008801;28;20533;-74
2022/12/24 02:59:48;;;;;;;87.60;28.77;;;;;;;3.29;100.00;87347.88;5000319;28;20418;-74
2022/12/24 03:02:23;;;;;;;101.38;29.02;;;;;;;3.26;100.00;87675.03;5005939;28;20041;-75
2022/12/24 03:05:31;;;;;;;86.20;28.00;;;;;;;3.26;100.00;87674.31;4990443;28;21187;-75
2022/12/24 03:08:12;;;;;;;86.55;29.95;;;;;;;3.29;100.00;87678.63;4929836;28;20047;-75
2022/12/24 03:10:54;;;;;;;82.70;28.27;;;;;;;3.24;100.00;88002.91;5007925;28;20049;-75
2022/12/24 03:13:20;;;;;;;94.95;30.17;;;;;;;3.27;100.00;88007.22;5006048;28;20039;-75
2022/12/24 03:15:46;;;;;;;93.47;29.15;;;;;;;3.26;100.00;88005.09;5016379;28;20110;-75
2022/12/24 03:18:16;;;;;;;84.45;28.20;;;;;;;3.28;100.00;88339.50;5009157;28;20036;-74
2022/12/24 03:20:47;;;;;;;84.93;28.98;;;;;;;3.27;100.00;88338.03;4990829;28;20114;-75
2022/12/24 03:23:13;;;;;;;85.32;27.88;;;;;;;3.28;100.00;88338.78;5006789;28;20424;-74
2022/12/24 03:25:41;;;;;;;89.72;27.25;;;;;;;3.27;100.00;88337.31;5010127;28;20044;-75
2022/12/24 03:28:08;;;;;;;71.13;25.35;;;;;;;3.26;100.00;88336.59;5024604;28;20040;-75
2022/12/24 03:30:34;;;;;;;77.43;27.20;;;;;;;3.28;100.00;88339.50;4987693;28;20041;-75
2022/12/24 03:33:00;;;;;;;81.78;27.17;;;;;;;3.29;100.00;88340.22;5023985;28;20036;-74
2022/12/24 03:35:26;;;;;;;79.60;27.02;;;;;;;3.26;100.00;88336.59;5002309;28;20051;-75
2022/12/24 03:37:52;;;;;;;81.45;25.92;;;;;;;3.29;100.00;88340.22;5008050;28;20044;-75
2022/12/24 03:40:18;;;;;;;87.05;26.92;;;;;;;3.27;100.00;88337.31;5001329;28;20078;-75
2022/12/24 03:42:46;;;;;;;78.70;26.70;;;;;;;3.26;100.00;88336.59;5009181;28;20120;-74
2022/12/24 03:45:11;;;;;;;77.90;25.40;;;;;;;3.25;100.00;88334.41;5012920;28;20032;-75
2022/12/24 03:47:37;;;;;;;89.75;26.88;;;;;;;3.26;100.00;88335.88;5005009;28;20071;-75
2022/12/24 03:50:03;;;;;;;73.22;25.90;;;;;;;3.24;100.00;88333.69;5022393;28;20075;-74
2022/12/24 03:52:29;;;;;;;81.47;26.42;;;;;;;3.24;100.00;88332.94;5010593;28;20144;-75
2022/12/24 03:54:54;;;;;;;73.28;24.75;;;;;;;3.28;100.00;87677.19;5004286;28;20426;-75
2022/12/24 03:57:20;;;;;;;69.72;24.58;;;;;;;3.28;100.00;87677.91;5018053;28;20061;-75
2022/12/24 03:59:46;;;;;;;68.72;23.83;;;;;;;3.30;100.00;87680.78;5005711;28;20551;-74
2022/12/24 04:02:11;;;;;;;66.40;23.58;;;;;;;3.31;100.00;87682.25;5024181;28;20033;-75
2022/12/24 04:04:37;;;;;;;70.55;23.88;;;;;;;3.31;100.00;88013.06;5024793;28;20048;-74
2022/12/24 04:07:04;;;;;;;60.42;23.13;;;;;;;3.33;100.00;88346.03;5008498;28;20043;-74
2022/12/24 04:09:30;;;;;;;64.03;21.55;;;;;;;3.31;100.00;88673.97;5028153;28;20033;-75
2022/12/24 04:11:55;;;;;;;71.55;24.25;;;;;;;3.29;100.00;89002.66;5013718;28;20033;-75
2022/12/24 04:14:21;;;;;;;66.95;22.20;;;;;;;3.31;100.00;89335.75;5025272;28;20049;-74
2022/12/24 04:16:47;;;;;;;56.80;21.35;;;;;;;3.36;100.00;89011.47;4999532;28;20478;-75
2022/12/24 04:19:13;;;;;;;54.22;20.05;;;;;;;3.33;100.00;89999.88;4991714;28;20028;-74
2022/12/24 04:21:38;;;;;;;56.35;21.35;;;;;;;3.33;100.00;90662.63;5015069;28;20044;-75
2022/12/24 04:24:04;;;;;;;51.20;20.15;;;;;;;3.34;100.00;91326.28;5017562;28;20045;-74
2022/12/24 04:26:30;;;;;;;48.70;19.52;;;;;;;3.36;100.00;91659.66;5026333;28;20029;-74
2022/12/24 04:28:56;;;;;;;59.72;21.17;;;;;;;3.34;100.00;92650.16;5008998;28;20037;-74
2022/12/24 04:31:21;;;;;;;52.95;19.95;;;;;;;3.27;100.00;93633.84;5038847;28;20053;-72
2022/12/24 04:33:50;;;;;;;54.47;20.33;;;;;;;3.30;100.00;94633.19;5023279;28;20037;-73
2022/12/24 04:36:17;;;;;;;53.35;19.95;;;;;;;3.28;100.00;95623.41;5045296;28;20494;-73
2022/12/24 04:38:44;;;;;;;57.03;21.33;;;;;;;3.28;100.00;95624.19;5027508;28;20063;-74
2022/12/24 04:41:13;;;;;;;60.88;20.80;;;;;;;3.31;100.00;96291.06;5011402;28;20072;-73
2022/12/24 04:43:39;;;;;;;54.42;20.42;;;;;;;3.30;100.00;96621.75;5012561;28;20029;-74
2022/12/24 04:46:13;;;;;;;46.05;19.98;;;;;;;3.28;100.00;97613.22;5014781;28;20328;-75
2022/12/24 04:48:40;;;;;;;58.72;21.40;;;;;;;3.28;100.00;97944.81;5023637;28;20044;-75
2022/12/24 04:51:07;;;;;;;51.42;20.20;;;;;;;3.31;100.00;97948.84;5034623;28;20113;-75
2022/12/24 04:53:34;;;;;;;54.40;21.23;;;;;;;3.30;100.00;98942.22;5031932;28;20111;-75
2022/12/24 04:56:00;;;;;;;55.40;20.25;;;;;;;3.28;100.00;99602.41;5024367;28;20089;-75
2022/12/24 04:58:26;;;;;;;58.00;19.98;;;;;;;3.28;100.00;99934.16;5008703;28;20079;-75
2022/12/24 05:00:52;;;;;;;52.67;20.65;;;;;;;3.28;100.00;100597.75;5020444;28;20035;-75
2022/12/24 05:03:18;;;;;;;55.22;21.10;;;;;;;3.29;100.00;100931.25;4996004;28;20041;-75
2022/12/24 05:05:44;;;;;;;54.30;20.77;;;;;;;3.23;100.00;101917.69;5010475;28;20082;-75
2022/12/24 05:08:09;;;;;;;55.47;20.75;;;;;;;3.24;100.00;102914.38;5015839;28;20155;-75
2022/12/24 05:10:35;;;;;;;52.10;21.20;;;;;;;3.24;100.00;103246.38;5041942;28;20029;-74
2022/12/24 05:13:01;;;;;;;53.90;20.67;;;;;;;3.15;100.00;103895.91;5010355;28;20041;-76
2022/12/24 05:15:26;;;;;;;56.15;21.42;;;;;;;3.21;100.00;104569.53;5011131;28;20029;-75
2022/12/24 05:17:52;;;;;;;48.38;19.65;;;;;;;3.20;100.00;104568.66;5005427;28;20037;-75
2022/12/24 05:20:18;;;;;;;54.65;20.33;;;;;;;3.19;100.00;105231.19;5006264;28;20769;-75
2022/12/24 05:28:17;;;;;;;50.92;19.20;;;;;;;3.21;100.00;108224.41;5024714;28;20569;-74
2022/12/24 05:30:43;;;;;;;50.13;20.08;;;;;;;3.20;100.00;109553.38;5026258;28;20056;-72
2022/12/24 05:33:08;;;;;;;49.15;19.13;;;;;;;3.21;100.00;109886.81;5020340;28;20544;-75
2022/12/24 05:35:34;;;;;;;49.42;19.90;;;;;;;3.21;100.00;111218.13;4995864;28;20037;-74
2022/12/24 05:38:00;;;;;;;54.10;19.75;;;;;;;3.20;100.00;112547.13;5008309;28;20041;-74
2022/12/24 05:40:26;;;;;;;59.60;20.30;;;;;;;3.22;100.00;113216.44;5004959;28;20079;-76
2022/12/24 05:42:51;;;;;;;47.90;19.08;;;;;;;3.19;100.00;114875.19;5025555;28;20049;-75
2022/12/24 05:45:17;;;;;;;53.03;20.77;;;;;;;3.19;100.00;115873.22;5019902;28;20494;-75
2022/12/24 05:47:43;;;;;;;50.90;19.73;;;;;;;3.19;100.00;116872.41;5006664;28;20058;-73
2022/12/24 05:50:09;;;;;;;44.60;18.85;;;;;;;3.24;100.00;117881.56;5004494;28;20131;-74
2022/12/24 05:52:34;;;;;;;48.00;19.60;;;;;;;3.21;100.00;119543.06;4991037;28;20805;-76
2022/12/24 05:55:00;;;;;;;50.63;19.52;;;;;;;3.18;100.00;121536.53;5023491;28;20041;-73
2022/12/24 05:57:26;;;;;;;47.70;18.13;;;;;;;3.20;100.00;122541.13;5007962;28;20033;-75
2022/12/24 05:59:51;;;;;;;46.47;18.92;;;;;;;3.24;100.00;124217.56;5013289;28;20155;-75
2022/12/24 06:02:17;;;;;;;47.67;18.88;;;;;;;3.23;100.00;127220.16;5023618;28;20043;-75
2022/12/24 06:04:42;;;;;;;47.95;18.65;;;;;;;3.21;100.00;128886.09;5026630;28;20029;-75
2022/12/24 06:07:08;;;;;;;50.17;19.42;;;;;;;3.15;100.00;129875.56;4995305;28;20110;-74
2022/12/24 06:09:34;;;;;;;42.45;17.58;;;;;;;3.17;100.00;130883.53;5027129;28;20485;-75
2022/12/24 06:12:00;;;;;;;47.55;17.77;;;;;;;3.16;100.00;132217.41;5008353;28;20048;-74
2022/12/24 06:14:25;;;;;;;58.95;19.60;;;;;;;3.10;100.00;133208.38;5013083;28;20034;-76
2022/12/24 06:16:51;;;;;;;44.97;18.38;;;;;;;3.17;100.00;133558.31;5016528;28;20041;-75
2022/12/24 06:19:17;;;;;;;44.92;18.15;;;;;;;3.22;100.00;133903.91;4993671;28;20025;-75
2022/12/24 06:21:42;;;;;;;40.47;18.10;;;;;;;3.22;100.00;135242.16;5023094;28;20037;-75
2022/12/24 06:24:08;;;;;;;45.25;16.65;;;;;;;3.21;100.00;136242.75;5012862;28;20041;-72
2022/12/24 06:26:34;;;;;;;45.20;17.60;;;;;;;3.18;100.00;137910.78;5011887;28;20036;-75
2022/12/24 06:29:00;;;;;;;39.70;17.23;;;;;;;3.20;100.00;138250.25;5002911;28;20041;-75
2022/12/24 06:31:25;;;;;;;45.60;17.73;;;;;;;3.16;100.00;139244.50;5015178;28;20036;-75
2022/12/24 06:33:51;;;;;;;41.50;16.17;;;;;;;3.17;100.00;139917.84;5029476;28;20394;-75
2022/12/24 06:36:21;;;;;;;43.10;17.50;;;;;;;3.18;100.00;140254.00;5005420;28;20047;-75
2022/12/24 06:38:47;;;;;;;47.10;17.98;;;;;;;3.20;100.00;140929.94;5008646;28;20056;-73
2022/12/24 06:41:13;;;;;;;43.65;18.05;;;;;;;3.14;100.00;141919.91;5006161;28;20048;-75
2022/12/24 06:43:43;;;;;;;40.28;16.40;;;;;;;3.14;100.00;141585.97;5004452;28;20033;-75
2022/12/24 06:46:08;;;;;;;43.40;17.52;;;;;;;3.17;100.00;141257.97;5019847;28;20037;-75
2022/12/24 06:48:34;;;;;;;41.05;17.17;;;;;;;3.19;100.00;141597.75;4991042;28;20064;-76
2022/12/24 06:51:03;;;;;;;39.20;16.65;;;;;;;3.22;100.00;141269.72;5006172;28;20044;-75
2022/12/24 06:53:30;;;;;;;41.63;16.80;;;;;;;3.18;100.00;141595.38;5007558;28;20029;-75
2022/12/24 06:56:04;;;;;;;39.38;17.30;;;;;;;3.20;100.00;142269.22;5010504;28;20041;-74
2022/12/24 06:58:32;;;;;;;35.05;16.52;;;;;;;3.18;100.00;142934.88;5005816;28;20140;-74
2022/12/24 07:01:01;;;;;;;39.85;16.63;;;;;;;3.19;100.00;142268.03;5005264;28;20130;-74
2022/12/24 07:03:27;;;;;;;37.05;16.02;;;;;;;3.18;100.00;142599.66;5007486;28;20041;-75
2022/12/24 07:05:53;;;;;;;34.92;15.35;;;;;;;3.20;100.00;141934.06;5019864;28;20045;-74
2022/12/24 07:08:19;;;;;;;35.00;15.20;;;;;;;3.16;100.00;142596.09;5019365;28;20155;-75
2022/12/24 07:10:44;;;;;;;35.78;15.98;;;;;;;3.18;100.00;142599.66;4987404;28;20064;-74
2022/12/24 07:13:10;;;;;;;34.22;15.13;;;;;;;3.25;100.00;141276.72;4999519;28;20502;-75
2022/12/24 07:15:36;;;;;;;32.95;14.98;;;;;;;3.24;100.00;142278.66;5002427;28;20388;-75
2022/12/24 07:18:02;;;;;;;32.90;14.52;;;;;;;3.24;100.00;143955.00;5006382;28;20723;-75
2022/12/24 07:20:28;;;;;;;34.50;15.18;;;;;;;3.19;100.00;144949.09;5025964;28;20070;-74
2022/12/24 07:22:53;;;;;;;33.40;15.10;;;;;;;3.16;100.00;144941.84;5012846;28;20173;-75
2022/12/24 07:25:19;;;;;;;29.10;14.07;;;;;;;3.22;100.00;144956.28;5021133;28;20550;-75
2022/12/24 07:27:45;;;;;;;29.35;12.82;;;;;;;3.17;100.00;145616.28;5004025;28;20051;-75
2022/12/24 07:30:11;;;;;;;31.20;13.63;;;;;;;3.21;100.00;146107.00;5004006;28;20192;-75
2022/12/24 07:32:36;;;;;;;29.17;13.52;;;;;;;3.19;100.00;147642.13;5007361;28;20117;-75
2022/12/24 07:35:02;;;;;;;32.78;14.00;;;;;;;3.21;100.00;148521.66;5021840;28;20338;-72
2022/12/24 07:37:28;;;;;;;31.30;13.60;;;;;;;3.19;100.00;148717.28;4982963;28;20061;-76
2022/12/24 07:39:54;;;;;;;27.88;14.05;;;;;;;3.21;100.00;148045.63;5007146;28;20103;-73
2022/12/24 07:42:20;;;;;;;31.15;13.70;;;;;;;3.20;100.00;148907.31;5027553;28;20032;-74
2022/12/24 07:44:46;;;;;;;26.63;13.63;;;;;;;3.21;100.00;148756.31;5022718;28;20036;-75
2022/12/24 07:47:12;;;;;;;30.48;13.77;;;;;;;3.16;100.00;149709.13;5010885;28;20083;-76
2022/12/24 07:49:38;;;;;;;34.25;14.25;;;;;;;3.18;100.00;149447.94;5019388;28;20436;-75
2022/12/24 07:52:03;;;;;;;27.20;12.40;;;;;;;3.18;100.00;149081.94;5004560;28;20041;-75
2022/12/24 07:54:29;;;;;;;30.45;13.55;;;;;;;3.16;100.00;149393.13;5036004;28;20127;-74
2022/12/24 07:56:55;;;;;;;26.75;13.35;;;;;;;3.18;100.00;148788.22;5007796;28;20071;-75
2022/12/24 07:59:21;;;;;;;27.98;13.57;;;;;;;3.20;100.00;149051.59;5005300;28;20037;-75
2022/12/24 08:01:46;;;;;;;27.52;13.10;;;;;;;3.17;100.00;148659.88;5002735;28;20072;-75
2022/12/24 08:04:12;;;;;;;24.15;12.60;;;;;;;3.18;100.00;148392.22;5005071;28;20053;-75
2022/12/24 08:06:38;;;;;;;29.63;13.00;;;;;;;3.12;100.00;148555.72;5003569;28;20440;-75
2022/12/24 08:09:04;;;;;;;29.83;13.90;;;;;;;3.10;100.00;147703.91;5018271;28;20128;-72
2022/12/24 08:11:29;;;;;;;27.88;13.38;;;;;;;3.11;100.00;146273.81;5035971;28;20387;-74
2022/12/24 08:13:55;;;;;;;27.27;13.25;;;;;;;3.14;100.00;144601.69;4993485;28;20041;-74
2022/12/24 08:16:21;;;;;;;24.35;12.63;;;;;;;3.14;100.00;144267.56;5022040;28;20467;-75
2022/12/24 08:18:46;;;;;;;28.00;12.93;;;;;;;3.22;100.00;142610.34;4991048;28;20116;-75
2022/12/24 08:21:12;;;;;;;24.45;13.00;;;;;;;3.25;100.00;143287.97;5030422;28;20040;-75
2022/12/24 08:23:38;;;;;;;28.55;13.27;;;;;;;3.19;100.00;146220.09;5006202;28;20043;-74
2022/12/24 08:26:09;;;;;;;25.48;12.82;;;;;;;3.18;100.00;148341.16;5005999;28;22681;-74
2022/12/24 08:28:35;;;;;;;28.73;13.73;;;;;;;3.15;100.00;149002.50;5007596;28;20154;-75
2022/12/24 08:31:01;;;;;;;28.77;13.20;;;;;;;3.15;100.00;149752.63;5008686;28;20120;-75
2022/12/24 08:33:27;;;;;;;26.60;12.68;;;;;;;3.21;100.00;148714.34;5021264;28;20032;-74
2022/12/24 08:35:54;;;;;;;26.27;13.43;;;;;;;3.18;100.00;149909.59;5002793;28;20542;-75
2022/12/24 08:38:21;;;;;;;25.83;13.50;;;;;;;3.18;100.00;150385.69;5025286;28;20327;-76
2022/12/24 08:40:48;;;;;;;24.65;12.63;;;;;;;3.21;100.00;150962.59;5008409;28;20056;-75
2022/12/24 08:43:18;;;;;;;25.40;12.73;;;;;;;3.20;100.00;150950.94;5034138;28;20216;-75
2022/12/24 08:45:45;;;;;;;26.70;13.10;;;;;;;3.21;100.00;150727.81;5025937;28;20060;-76
2022/12/24 08:48:11;;;;;;;25.17;13.30;;;;;;;3.24;100.00;150282.66;5011868;28;20036;-75
2022/12/24 08:50:38;;;;;;;28.08;13.27;;;;;;;3.22;100.00;150782.78;5011479;28;20043;-74
2022/12/24 08:53:04;;;;;;;28.25;13.55;;;;;;;3.18;100.00;151012.78;5029240;28;20056;-75
2022/12/24 08:55:29;;;;;;;28.67;13.35;;;;;;;3.18;100.00;150652.06;5006095;28;20072;-74
2022/12/24 08:57:55;;;;;;;27.92;14.48;;;;;;;3.17;100.00;150073.63;5006258;28;20086;-76
2022/12/24 09:00:21;;;;;;;23.15;12.48;;;;;;;3.26;100.00;148684.75;5010639;28;20411;-74
2022/12/24 09:02:46;;;;;;;28.30;14.50;;;;;;;3.26;100.00;147511.28;5009166;28;20040;-75
2022/12/24 09:05:12;;;;;;;28.08;14.65;;;;;;;3.26;100.00;147158.53;5021392;28;20040;-73
2022/12/24 09:07:38;;;;;;;22.90;12.90;;;;;;;3.25;100.00;145826.97;5041993;28;20487;-74
2022/12/24 09:10:04;;;;;;;24.73;13.35;;;;;;;3.27;100.00;144969.56;5025673;28;20033;-76
2022/12/24 09:12:30;;;;;;;25.63;13.73;;;;;;;3.29;100.00;143968.16;5023995;28;20044;-75
2022/12/24 09:14:55;;;;;;;26.02;13.45;;;;;;;3.26;100.00;144296.38;5034475;28;20036;-73
2022/12/24 09:17:21;;;;;;;25.67;14.18;;;;;;;3.20;100.00;144281.97;5009681;28;20129;-74
2022/12/24 09:19:47;;;;;;;27.27;13.73;;;;;;;3.26;100.00;143624.50;5010414;28;20191;-75
2022/12/24 09:22:15;;;;;;;22.73;13.27;;;;;;;3.32;100.00;142968.16;4991628;28;20068;-72
2022/12/24 09:24:41;;;;;;;24.17;13.45;;;;;;;3.32;100.00;144309.56;5027259;28;20055;-74
2022/12/24 09:27:06;;;;;;;22.00;12.82;;;;;;;3.33;100.00;144982.81;5026237;28;20545;-75
2022/12/24 09:29:32;;;;;;;23.90;13.20;;;;;;;3.33;100.00;146681.47;4996761;28;20033;-72
2022/12/24 09:31:58;;;;;;;22.42;12.82;;;;;;;3.35;100.00;146366.47;5011408;28;20527;-76
2022/12/24 09:34:24;;;;;;;22.27;12.55;;;;;;;3.34;100.00;148068.53;5040712;28;20039;-76
2022/12/24 09:36:52;;;;;;;20.38;12.45;;;;;;;3.36;100.00;148334.53;5007361;28;20037;-75
2022/12/24 09:39:19;;;;;;;22.50;13.15;;;;;;;3.39;100.00;148476.97;4996230;28;20036;-75
2022/12/24 09:42:13;;;;;;;23.13;12.98;;;;;;;3.45;100.00;149587.34;5006883;28;20048;-75
2022/12/24 09:45:24;;;;;;;20.95;12.52;;;;;;;3.34;100.00;153052.28;5003675;28;20037;-75
2022/12/24 09:47:58;;;;;;;38.85;17.88;;;;;;;3.33;100.00;153030.06;5001835;28;20045;-74
2022/12/24 09:50:53;;;;;;;21.80;12.82;;;;;;;3.36;100.00;152943.19;5015563;28;20037;-74
2022/12/24 09:53:37;;;;;;;22.52;12.75;;;;;;;3.34;100.00;153083.78;5020712;28;20132;-73
2022/12/24 09:56:10;;;;;;;22.20;13.05;;;;;;;3.32;100.00;153055.06;5007443;28;20522;-74
2022/12/24 09:58:49;;;;;;;20.65;12.60;;;;;;;3.38;100.00;153079.59;4986614;28;20071;-76
2022/12/24 10:01:17;;;;;;;22.23;12.77;;;;;;;3.38;100.00;153028.31;5019749;28;20267;-75
2022/12/24 10:03:43;;;;;;;22.73;14.13;;;;;;;3.39;100.00;153226.53;5009373;28;20524;-74
2022/12/24 10:06:33;;;;;;;25.17;15.93;;;;;;;3.44;100.00;153318.09;5005141;28;20029;-75
2022/12/24 10:09:22;;;;;;;21.20;13.75;;;;;;;3.47;100.00;153409.84;5026294;28;20056;-75
2022/12/24 10:12:13;;;;;;;20.60;12.45;;;;;;;3.48;100.00;153412.38;5004139;28;20776;-75
2022/12/24 10:14:54;;;;;;;23.20;13.30;;;;;;;3.49;100.00;153275.72;5005399;28;20037;-75
2022/12/24 10:17:47;;;;;;;20.33;13.50;;;;;;;3.53;100.00;152860.38;5022081;28;20079;-75
2022/12/24 10:20:40;;;;;;;23.30;14.57;;;;;;;3.55;100.00;152667.19;5003636;28;20034;-72
2022/12/24 10:23:30;;;;;;;21.52;13.40;;;;;;;3.62;100.00;152096.63;5019085;28;20162;-75
2022/12/24 10:26:05;;;;;;;20.42;12.45;;;;;;;3.64;100.00;152523.22;5003265;28;20039;-71
2022/12/24 10:28:47;;;;;;;17.70;12.10;;;;;;;3.67;100.00;152671.41;5012633;28;20098;-75
2022/12/24 10:31:14;;;;;;;17.48;11.73;;;;;;;3.72;100.00;153121.63;4987193;28;20413;-75
2022/12/24 10:33:42;;;;;;;17.05;11.63;;;;;;;3.78;100.00;153486.44;5017510;28;20069;-72
2022/12/24 10:36:22;;;;;;;16.50;11.00;;;;;;;3.88;100.00;153513.28;5014563;28;20179;-74
2022/12/24 10:38:48;;;;;;;18.77;13.80;;;;;;;3.84;100.00;153501.75;5017837;28;20025;-77
2022/12/24 10:41:14;;;;;;;22.13;14.75;;;;;;;3.79;100.00;153490.28;5004734;28;20087;-77
2022/12/24 10:43:42;;;;;;;16.05;10.98;;;;;;;3.76;100.00;153481.34;5046664;28;20117;-76
2022/12/24 10:46:21;;;;;;;21.45;13.88;;;;;;;3.80;100.00;153492.81;5006581;28;20124;-73
2022/12/24 10:49:04;;;;;;;19.48;13.45;;;;;;;3.77;100.00;153485.16;5017088;28;20035;-73
2022/12/24 10:51:41;;;;;;;17.05;11.40;;;;;;;3.71;100.00;153469.81;5004273;28;20040;-75
2022/12/24 10:54:14;;;;;;;20.73;11.27;;;;;;;3.67;100.00;153459.59;5007047;28;20422;-74
2022/12/24 10:56:46;;;;;;;22.50;12.98;;;;;;;3.62;100.00;153446.88;5004836;28;20506;-75
2022/12/24 10:59:48;;;;;;;20.30;12.15;;;;;;;3.71;100.00;153469.81;5020909;28;20029;-76
2022/12/24 11:02:37;;;;;;;18.13;12.60;;;;;;;3.69;100.00;153464.72;4994984;28;20053;-74
2022/12/24 11:05:24;;;;;;;27.35;16.20;;;;;;;3.71;100.00;153469.81;5012782;28;20032;-72
2022/12/24 11:08:00;;;;;;;22.02;13.77;;;;;;;3.72;100.00;153472.38;5011380;28;20547;-73
2022/12/24 11:10:25;;;;;;;20.33;13.18;;;;;;;3.76;100.00;153481.34;5003404;28;20043;-73
2022/12/24 11:12:53;;;;;;;22.52;13.73;;;;;;;3.79;100.00;153490.28;5001191;28;20041;-77
2022/12/24 11:15:37;;;;;;;19.20;12.43;;;;;;;3.80;100.00;153492.81;5008854;28;20038;-76
2022/12/24 11:18:12;;;;;;;19.02;12.43;;;;;;;3.85;100.00;153504.31;5018627;28;20445;-73
2022/12/24 11:20:38;;;;;;;20.15;13.10;;;;;;;3.92;100.00;153520.91;5021449;28;20067;-73
2022/12/24 11:23:04;;;;;;;20.80;13.05;;;;;;;3.97;100.00;153533.69;4987973;28;20041;-74
2022/12/24 11:25:40;;;;;;;22.30;12.18;;;;;;;4.03;100.00;153549.00;5004312;28;20040;-74
2022/12/24 11:28:18;;;;;;;24.42;15.82;;;;;;;4.03;100.00;153549.00;5041589;28;20033;-76
2022/12/24 11:30:56;;;;;;;20.63;12.95;;;;;;;3.98;100.00;153537.53;5005720;28;20858;-76
2022/12/24 11:33:22;;;;;;;23.50;16.35;;;;;;;3.96;100.00;153531.16;5028393;28;20048;-76